Monday, July 23, 2018, 11:19 AM EDT
Back to Local

K12N, Aeroflex-andover Airport

Location: Newton, NJ, United States Lat: 41.017
Local Time: 11:19 AM EDT (15:19 GMT) Lon: -74.733
Time Zone: US/Eastern Elev: 583 ft

Show me the last for .
Show Coded

Time T Td Feel RH Dir Speed Gust Alt SLP Vis Weather Sky Remarks
2018-07-23 10:54 77 74 82 90 Variable 7 - 30.11 30.08 0 6-hr Precip Total (11am): 0.49"
2018-07-23 09:54 75 75 80 100 Variable 6 - 30.09 30.06 0 1-hr Precip Total: 0.44"
2018-07-23 08:54 74 74 79 100 Variable 3 - 30.07 30.05 0 1-hr Precip Total: 0.05"
2018-07-23 07:54 73 73 78 100 - Calm - 30.06 30.04 0 1-hr Precip Total: 0.45"
6-hr Precip Total (8am): 0.67"
24-hr Precip Total (8am): 0.87"
6-hr Min Temp (8am): 72.0°F
6-hr Max Temp (8am): 75.0°F
2018-07-23 06:54 72 72 77 100 Variable 5 - 30.05 30.03 0 1-hr Precip Total: 0.15"
2018-07-23 05:54 73 72 77 96 Variable 3 - 30.03 30.01 0 1-hr Precip Total: 0.06"
2018-07-23 04:54 74 74 79 100 Variable 3 - 30.02 29.99 0 1-hr Precip Total: 0.01"
6-hr Precip Total (5am): 0.01"
2018-07-23 03:54 74 74 79 100 Variable 5 - 30.01 29.98 0 None
2018-07-23 02:54 75 74 80 96 Variable 5 - 30.01 29.98 0 None
2018-07-23 01:54 75 75 80 100 Variable 3 - 30.01 29.98 0 1-hr Precip Total: 0.02"
6-hr Precip Total (2am): 0.16"
6-hr Min Temp (2am): 73.0°F
6-hr Max Temp (2am): 75.0°F
2018-07-23 00:54 73 73 78 100 - Calm - 30.02 30.00 0 1-hr Precip Total: 0.13"
24-hr Min Temp (1am): 64.0°F
24-hr Max Temp (1am): 82.9°F
2018-07-22 23:54 75 75 80 100 Variable 3 - 30.02 29.99 0 None
2018-07-22 22:54 75 74 80 96 - Calm - 30.02 29.99 0 6-hr Precip Total (11pm): 0.01"
2018-07-22 21:54 74 73 78 97 - Calm - 30.02 29.99 0 None
2018-07-22 20:54 74 73 78 97 Variable 5 - 29.99 29.97 0 1-hr Precip Total: 0.01"
2018-07-22 19:54 74 73 78 97 Variable 3 - 29.98 29.96 0 6-hr Precip Total (8pm): 0.04"
6-hr Min Temp (8pm): 73.9°F
6-hr Max Temp (8pm): 82.9°F
2018-07-22 18:54 75 73 79 93 Variable 5 - 29.97 29.94 0 1-hr Precip Total: 0.04"
2018-07-22 17:54 81 73 87 76 110° 8 - 29.94 29.91 0 None
2018-07-22 16:54 81 72 86 74 Variable 3 - 29.94 29.91 0 None
2018-07-22 15:54 82 72 87 71 Variable 6 - 29.93 29.90 0 None
2018-07-22 14:54 80 71 84 74 Variable 3 18 29.94 29.91 0 None
2018-07-22 13:54 80 71 84 74 Variable 3 - 29.94 29.92 0 6-hr Min Temp (2pm): 71.1°F
6-hr Max Temp (2pm): 81.0°F
2018-07-22 12:54 79 70 83 74 Variable 6 - 29.95 29.92 0 None
2018-07-22 11:54 77 71 81 81 200° 9 18 29.93 29.91 0 None

Support USWX by starting your Amazon purchase here.